Time;durP1;ratioP1;P1;durP2;ratioP2;P2;SDS_P1;SDS_P2;PMS_P1;PMS_P2;Temp;Humidity;BMP_temperature;BMP_pressure;BME280_temperature;BME280_humidity;BME280_pressure;Samples;Min_cycle;Max_cycle;Signal;HPM_P1;HPM_P2
2021/08/04 00:01:35;;;;;;;5.88;4.80;;;;;;;14.90;69.42;100186.31;10348640;28;20564;-74
2021/08/04 00:06:38;;;;;;;7.32;5.28;;;;;;;14.87;69.55;100183.94;10348095;28;20707;-75
2021/08/04 00:11:41;;;;;;;5.65;4.72;;;;;;;14.87;69.86;100186.63;10348311;28;20195;-75
2021/08/04 00:16:45;;;;;;;6.18;5.07;;;;;;;14.81;70.00;100188.97;10348709;28;20210;-75
2021/08/04 00:21:49;;;;;;;6.38;5.68;;;;;;;14.63;70.28;100192.69;10349022;28;20222;-75
2021/08/04 00:26:51;;;;;;;8.02;5.63;;;;;;;14.66;70.68;100195.06;10347381;28;20735;-75
2021/08/04 00:31:55;;;;;;;6.65;5.43;;;;;;;14.61;70.49;100190.13;10347898;28;20192;-75
2021/08/04 00:36:59;;;;;;;6.82;5.70;;;;;;;14.44;71.48;100191.81;10347419;28;20583;-75
2021/08/04 00:42:02;;;;;;;8.45;5.80;;;;;;;14.48;71.33;100186.94;10347443;28;20609;-75
2021/08/04 00:47:07;;;;;;;7.95;5.13;;;;;;;14.35;72.11;100190.88;10346943;28;20211;-75
2021/08/04 00:52:10;;;;;;;6.25;5.43;;;;;;;14.22;72.25;100184.97;10348124;28;20199;-75
2021/08/04 00:57:14;;;;;;;6.00;5.28;;;;;;;14.06;73.63;100195.63;10329390;28;20231;-75
2021/08/04 01:02:24;;;;;;;6.88;5.63;;;;;;;14.07;73.63;100191.91;10330546;28;20207;-75
2021/08/04 01:07:31;;;;;;;8.32;5.43;;;;;;;13.66;75.23;100200.38;10330300;28;20261;-75
2021/08/04 01:12:41;;;;;;;9.20;5.60;;;;;;;13.53;75.92;100204.41;10348408;28;20645;-75
2021/08/04 01:17:49;;;;;;;7.28;5.85;;;;;;;13.72;75.35;100201.63;10329063;28;20307;-75
2021/08/04 01:23:10;;;;;;;6.88;6.00;;;;;;;13.82;74.78;100202.44;10329427;28;20406;-75
2021/08/04 01:28:27;;;;;;;8.52;6.07;;;;;;;13.70;75.09;100203.63;10328353;28;20235;-75
2021/08/04 01:33:32;;;;;;;8.77;6.18;;;;;;;13.75;74.66;100201.31;10328565;28;20195;-74
2021/08/04 01:38:35;;;;;;;9.95;6.57;;;;;;;13.60;75.35;100202.81;10328611;28;20227;-75
2021/08/04 01:43:41;;;;;;;10.50;6.55;;;;;;;13.31;76.09;100197.50;10345908;28;20267;-75
2021/08/04 01:48:45;;;;;;;11.02;6.38;;;;;;;13.58;75.45;100200.28;10345387;28;20219;-75
2021/08/04 01:53:50;;;;;;;7.15;5.68;;;;;;;13.54;75.21;100192.59;10328081;28;20276;-75
2021/08/04 01:58:55;;;;;;;8.75;5.97;;;;;;;13.47;75.26;100195.06;10345014;28;20223;-75
2021/08/04 02:03:58;;;;;;;7.93;5.80;;;;;;;13.59;75.16;100193.03;10327771;28;20250;-75
2021/08/04 02:09:04;;;;;;;6.38;5.55;;;;;;;13.54;74.99;100187.22;10347364;28;20215;-75
2021/08/04 02:14:18;;;;;;;6.50;5.22;;;;;;;13.32;75.66;100186.53;10334496;28;20188;-75
2021/08/04 02:19:27;;;;;;;8.60;5.63;;;;;;;13.42;75.47;100186.56;10334736;28;20202;-75
2021/08/04 02:24:32;;;;;;;7.13;5.00;;;;;;;13.55;74.96;100183.50;10334408;28;20215;-75
2021/08/04 02:29:42;;;;;;;9.02;6.40;;;;;;;13.60;74.80;100183.91;10334420;28;20203;-75
2021/08/04 02:34:45;;;;;;;7.72;5.20;;;;;;;13.61;74.47;100180.22;10351426;28;20211;-75
2021/08/04 02:39:48;;;;;;;7.10;5.88;;;;;;;13.54;74.34;100173.72;10333695;28;20200;-76
2021/08/04 02:44:52;;;;;;;6.88;5.38;;;;;;;13.53;74.33;100180.13;10350635;28;20223;-75
2021/08/04 02:49:56;;;;;;;9.27;5.43;;;;;;;13.59;74.46;100187.63;10333708;28;20290;-75
2021/08/04 02:55:01;;;;;;;6.50;5.25;;;;;;;13.68;74.22;100186.72;10332909;28;20231;-75
2021/08/04 03:00:07;;;;;;;6.20;5.13;;;;;;;13.75;74.00;100181.59;10350796;28;20195;-75
2021/08/04 03:05:11;;;;;;;6.20;5.57;;;;;;;13.83;73.93;100182.53;10350526;28;20216;-75
2021/08/04 03:10:14;;;;;;;9.05;5.57;;;;;;;13.86;73.36;100176.81;10332968;28;20258;-76
2021/08/04 03:15:18;;;;;;;7.10;5.88;;;;;;;13.93;73.25;100180.63;10332438;28;20223;-76
2021/08/04 03:20:21;;;;;;;6.40;5.60;;;;;;;13.94;73.63;100178.78;10350209;28;20636;-76
2021/08/04 03:25:24;;;;;;;7.40;5.90;;;;;;;13.69;74.17;100185.75;10349639;28;20624;-75
2021/08/04 03:30:28;;;;;;;7.10;5.85;;;;;;;13.41;75.47;100195.63;10350078;28;20199;-74
2021/08/04 03:35:31;;;;;;;6.93;5.40;;;;;;;13.51;75.44;100185.66;10331672;28;20262;-76
2021/08/04 03:40:34;;;;;;;8.80;5.63;;;;;;;13.67;75.34;100193.97;10349529;28;20681;-75
2021/08/04 03:45:38;;;;;;;8.90;6.50;;;;;;;13.69;75.14;100197.38;10348721;28;20389;-75
2021/08/04 03:50:41;;;;;;;9.07;6.50;;;;;;;13.64;75.16;100191.56;10349193;28;20660;-75
2021/08/04 03:55:44;;;;;;;12.20;6.18;;;;;;;13.64;75.44;100199.66;10348465;28;20223;-75
2021/08/04 04:00:49;;;;;;;10.80;6.90;;;;;;;13.59;75.74;100195.72;10348948;28;20191;-74
2021/08/04 04:05:52;;;;;;;8.55;7.35;;;;;;;13.73;75.84;100197.06;10349089;28;20244;-75
2021/08/04 04:10:55;;;;;;;11.05;7.25;;;;;;;13.57;76.23;100197.72;10349481;28;20199;-75
2021/08/04 04:15:59;;;;;;;11.10;7.45;;;;;;;13.63;76.33;100199.81;10348226;28;20215;-75
2021/08/04 04:21:02;;;;;;;10.05;7.47;;;;;;;13.69;76.23;100212.72;10347994;28;20191;-75
2021/08/04 04:26:05;;;;;;;12.65;8.68;;;;;;;13.78;75.99;100205.59;10347426;28;20215;-75
2021/08/04 04:31:09;;;;;;;14.68;8.00;;;;;;;13.84;75.95;100207.66;10347302;28;20245;-75
2021/08/04 04:36:12;;;;;;;13.82;9.10;;;;;;;13.88;76.11;100211.78;10347242;28;20207;-75
2021/08/04 04:41:14;;;;;;;12.98;8.38;;;;;;;13.97;76.16;100215.44;10330164;28;20195;-75
2021/08/04 04:46:19;;;;;;;12.90;8.70;;;;;;;13.99;75.73;100213.41;10346879;28;20223;-75
2021/08/04 04:51:22;;;;;;;12.07;8.50;;;;;;;14.12;75.71;100219.31;10346499;28;20196;-75
2021/08/04 04:56:24;;;;;;;14.98;9.10;;;;;;;14.22;75.79;100213.84;10345716;28;20227;-75
2021/08/04 05:01:28;;;;;;;14.23;8.80;;;;;;;14.28;75.40;100215.94;10328709;28;20214;-75
2021/08/04 05:06:32;;;;;;;14.50;8.80;;;;;;;14.34;75.25;100218.03;10327913;28;20321;-75
2021/08/04 05:11:35;;;;;;;12.73;9.10;;;;;;;14.46;75.21;100216.00;10346004;28;20575;-76
2021/08/04 05:16:39;;;;;;;14.52;9.77;;;;;;;14.49;74.67;100230.06;10345512;28;20215;-75
2021/08/04 05:21:42;;;;;;;13.35;9.75;;;;;;;14.50;74.73;100229.03;10345926;28;20188;-75
2021/08/04 05:26:44;;;;;;;14.38;9.68;;;;;;;14.75;74.34;100230.13;10344883;28;20692;-76
2021/08/04 05:31:49;;;;;;;11.63;8.38;;;;;;;14.97;73.51;100225.22;10345348;28;20562;-76
2021/08/04 05:36:51;;;;;;;13.77;8.90;;;;;;;15.18;72.59;100239.25;10345045;28;20712;-76
2021/08/04 05:41:54;;;;;;;10.00;7.40;;;;;;;15.40;71.63;100245.19;10345169;28;20203;-76
2021/08/04 05:46:58;;;;;;;11.50;7.38;;;;;;;15.60;70.84;100249.38;10350725;28;20334;-75
2021/08/04 05:52:01;;;;;;;9.98;6.68;;;;;;;15.67;70.15;100247.72;10334545;28;20687;-75
2021/08/04 05:57:05;;;;;;;13.48;7.18;;;;;;;15.77;70.04;100244.03;10351303;28;20227;-75
2021/08/04 06:02:09;;;;;;;11.43;7.00;;;;;;;15.83;69.48;100243.44;10351628;28;20619;-75
2021/08/04 06:07:12;;;;;;;9.07;6.65;;;;;;;15.92;69.21;100242.44;10350953;28;20326;-76
2021/08/04 06:12:15;;;;;;;6.70;5.15;;;;;;;15.97;68.68;100237.38;10351680;28;20242;-75
2021/08/04 06:17:19;;;;;;;12.07;6.68;;;;;;;16.03;68.22;100244.00;10350830;28;20226;-76
2021/08/04 06:22:22;;;;;;;8.63;5.97;;;;;;;16.20;67.99;100250.34;10351091;28;20730;-75
2021/08/04 06:27:25;;;;;;;7.55;5.78;;;;;;;16.38;67.68;100259.22;10350631;28;20219;-75
2021/08/04 06:32:29;;;;;;;12.90;6.15;;;;;;;16.54;67.27;100266.56;10350792;28;20623;-75
2021/08/04 06:37:32;;;;;;;7.70;5.70;;;;;;;16.59;66.43;100261.47;10350339;28;20234;-76
2021/08/04 06:42:35;;;;;;;8.80;5.85;;;;;;;16.59;66.11;100265.06;10350244;28;20222;-74
2021/08/04 06:47:39;;;;;;;7.82;4.82;;;;;;;16.64;65.98;100261.81;10348629;28;20227;-75
2021/08/04 06:52:43;;;;;;;6.10;4.68;;;;;;;16.71;65.91;100256.59;10350262;28;20196;-75
2021/08/04 06:57:47;;;;;;;8.13;5.60;;;;;;;16.83;65.55;100265.25;10348913;23;20251;-75
2021/08/04 07:02:51;;;;;;;8.18;5.90;;;;;;;16.95;64.93;100267.47;10349791;28;20246;-75
2021/08/04 07:07:54;;;;;;;8.80;4.93;;;;;;;17.17;64.48;100273.28;10322106;28;20227;-75
2021/08/04 07:12:57;;;;;;;8.57;5.22;;;;;;;17.34;63.99;100274.09;10309071;28;20199;-75
2021/08/04 07:18:04;;;;;;;7.07;4.38;;;;;;;17.46;63.22;100275.44;10308354;28;20561;-76
2021/08/04 07:23:07;;;;;;;6.63;4.38;;;;;;;17.71;62.59;100281.66;10308542;28;20250;-75
2021/08/04 07:28:10;;;;;;;7.30;5.38;;;;;;;17.98;61.85;100279.59;10307938;28;20307;-75
2021/08/04 07:33:14;;;;;;;7.07;4.75;;;;;;;18.49;60.29;100282.75;10309318;28;20195;-76
2021/08/04 07:38:17;;;;;;;7.53;5.03;;;;;;;19.17;59.17;100273.81;10307547;28;20212;-75
2021/08/04 07:43:20;;;;;;;8.35;4.95;;;;;;;19.55;56.14;100276.50;10307953;28;20207;-74
2021/08/04 07:48:24;;;;;;;7.57;5.22;;;;;;;19.66;57.22;100265.19;10307403;28;20272;-74
2021/08/04 07:53:27;;;;;;;8.77;4.00;;;;;;;19.92;56.78;100276.66;10307808;28;20731;-74
2021/08/04 07:58:29;;;;;;;6.05;4.65;;;;;;;19.68;55.88;100276.72;10306924;28;20778;-75
2021/08/04 08:03:34;;;;;;;6.55;4.80;;;;;;;19.60;56.74;100273.25;10307130;28;20204;-74
2021/08/04 08:08:37;;;;;;;6.63;4.55;;;;;;;19.87;56.56;100269.88;10305641;28;20697;-75
2021/08/04 08:13:39;;;;;;;7.20;4.82;;;;;;;19.97;55.91;100274.22;10307097;28;20204;-75
2021/08/04 08:18:44;;;;;;;5.18;4.00;;;;;;;20.22;55.04;100272.03;10306522;28;20259;-75
2021/08/04 08:23:46;;;;;;;5.13;4.25;;;;;;;20.58;54.81;100271.22;10307050;28;20727;-74
2021/08/04 08:28:50;;;;;;;6.70;4.35;;;;;;;20.44;54.42;100262.88;10305900;28;20227;-75
2021/08/04 08:33:54;;;;;;;6.65;4.88;;;;;;;20.25;54.42;100261.59;10308583;28;20200;-75
2021/08/04 08:38:58;;;;;;;4.20;3.13;;;;;;;20.19;55.09;100256.06;10292187;28;20567;-75
2021/08/04 08:44:01;;;;;;;6.53;4.30;;;;;;;20.09;54.61;100270.81;10309177;28;20199;-74
2021/08/04 08:49:06;;;;;;;5.50;4.25;;;;;;;20.20;55.16;100263.19;10308772;28;20231;-75
2021/08/04 08:54:09;;;;;;;5.55;4.57;;;;;;;19.99;55.03;100258.50;10309012;28;20210;-74
2021/08/04 08:59:12;;;;;;;5.43;4.25;;;;;;;20.17;55.26;100260.84;10307927;28;20231;-76
2021/08/04 09:04:17;;;;;;;6.05;4.65;;;;;;;20.32;55.07;100262.56;10308073;28;20204;-75
2021/08/04 09:09:22;;;;;;;4.47;4.07;;;;;;;20.61;53.69;100252.59;10304982;28;20517;-75
2021/08/04 09:14:29;;;;;;;6.13;3.90;;;;;;;22.13;51.33;100259.47;10305389;28;20564;-74
2021/08/04 09:19:35;;;;;;;7.43;4.03;;;;;;;22.32;49.90;100255.97;10309708;28;20274;-75
2021/08/04 09:25:01;;;;;;;5.38;3.78;;;;;;;21.78;51.80;100256.78;10312029;28;20196;-75
2021/08/04 09:30:05;;;;;;;4.97;3.75;;;;;;;22.61;49.25;100248.53;10312430;28;20289;-74
2021/08/04 09:35:12;;;;;;;4.85;3.80;;;;;;;22.12;49.09;100244.97;10311644;28;20241;-73
2021/08/04 09:40:21;;;;;;;5.97;3.90;;;;;;;22.32;50.15;100245.03;10312075;28;20656;-75
2021/08/04 09:45:25;;;;;;;4.70;3.45;;;;;;;23.11;47.90;100244.41;10314397;28;20216;-75
2021/08/04 09:50:44;;;;;;;4.03;3.33;;;;;;;23.53;47.58;100242.31;10314995;28;20215;-75
2021/08/04 09:56:11;;;;;;;4.57;3.80;;;;;;;24.13;45.37;100239.41;10313810;28;20236;-77
2021/08/04 10:01:15;;;;;;;3.85;3.30;;;;;;;23.54;45.25;100238.50;10314451;28;20192;-75
2021/08/04 10:06:22;;;;;;;3.53;2.90;;;;;;;23.18;46.37;100222.50;10317576;28;20228;-75
2021/08/04 10:11:30;;;;;;;3.70;3.17;;;;;;;24.15;44.93;100218.09;10313023;28;20199;-74
2021/08/04 10:16:36;;;;;;;3.83;2.80;;;;;;;24.78;42.33;100213.75;10312441;28;20216;-75
2021/08/04 10:21:43;;;;;;;4.15;3.00;;;;;;;25.09;42.98;100216.47;10312057;28;20192;-75
2021/08/04 10:26:47;;;;;;;4.82;3.55;;;;;;;25.67;41.37;100208.97;10311190;28;20239;-74
2021/08/04 10:31:50;;;;;;;3.58;3.03;;;;;;;25.91;40.64;100198.97;10311341;28;20188;-75
2021/08/04 10:36:59;;;;;;;4.93;3.10;;;;;;;25.95;40.88;100206.53;10311446;28;20223;-75
2021/08/04 10:42:05;;;;;;;4.47;3.30;;;;;;;26.55;39.47;100213.19;10295236;28;20627;-76
2021/08/04 10:47:26;;;;;;;3.78;3.25;;;;;;;26.83;38.89;100196.91;10311691;28;20220;-75
2021/08/04 10:52:30;;;;;;;5.72;3.40;;;;;;;27.24;38.07;100191.56;10312818;28;20199;-75
2021/08/04 10:57:36;;;;;;;4.30;3.90;;;;;;;26.47;38.73;100187.66;10310769;28;20228;-75
2021/08/04 11:02:39;;;;;;;4.85;3.75;;;;;;;25.12;40.55;100191.31;10312418;28;20656;-75
2021/08/04 11:08:17;;;;;;;4.18;3.72;;;;;;;24.94;41.84;100196.72;10312589;28;20223;-75
2021/08/04 11:13:55;;;;;;;3.80;3.47;;;;;;;26.64;39.93;100187.84;10310491;28;20215;-75
2021/08/04 11:19:04;;;;;;;4.15;3.63;;;;;;;26.20;38.51;100187.16;10312620;28;20215;-74
2021/08/04 11:24:09;;;;;;;4.82;4.32;;;;;;;25.28;39.40;100194.53;10311346;28;20203;-74
2021/08/04 11:29:12;;;;;;;4.75;3.65;;;;;;;25.07;40.34;100193.06;10294147;28;20305;-74
2021/08/04 11:34:29;;;;;;;4.90;3.63;;;;;;;26.85;37.41;100180.97;10311178;28;20562;-74
2021/08/04 11:39:33;;;;;;;4.57;3.08;;;;;;;25.69;39.02;100185.69;10310787;28;20338;-76
2021/08/04 11:44:38;;;;;;;3.67;3.30;;;;;;;25.18;39.42;100167.59;10309608;28;20275;-77
2021/08/04 11:49:42;;;;;;;4.32;3.92;;;;;;;26.31;38.82;100165.47;10293914;28;20228;-75
2021/08/04 11:54:49;;;;;;;3.58;3.00;;;;;;;27.59;35.60;100151.03;10310406;28;20833;-75
2021/08/04 11:59:53;;;;;;;4.22;3.60;;;;;;;28.57;34.43;100148.28;10311018;28;20200;-75
2021/08/04 12:04:58;;;;;;;5.10;3.20;;;;;;;27.33;35.07;100144.06;10310512;28;20218;-75
2021/08/04 12:10:05;;;;;;;5.07;3.28;;;;;;;26.71;37.05;100143.63;10316324;28;20204;-75
2021/08/04 12:15:15;;;;;;;4.63;3.42;;;;;;;25.94;38.48;100140.72;10312002;28;20250;-75
2021/08/04 12:20:20;;;;;;;5.40;3.42;;;;;;;25.54;38.74;100147.53;10307409;28;20200;-75
2021/08/04 12:25:25;;;;;;;5.75;3.45;;;;;;;25.69;39.62;100138.09;10290751;28;20228;-74
2021/08/04 12:30:31;;;;;;;4.68;3.85;;;;;;;26.92;37.60;100126.56;10309258;28;20220;-76
2021/08/04 12:35:40;;;;;;;3.60;3.30;;;;;;;28.56;34.96;100130.03;10308075;28;20223;-75
2021/08/04 12:40:48;;;;;;;4.18;3.05;;;;;;;28.14;34.60;100129.50;10308785;28;20192;-74
2021/08/04 12:45:52;;;;;;;4.40;3.78;;;;;;;26.82;36.16;100123.56;10308390;28;20216;-77
2021/08/04 12:50:58;;;;;;;4.20;3.60;;;;;;;25.61;38.89;100128.19;10307229;28;20215;-77
2021/08/04 12:56:09;;;;;;;4.97;3.72;;;;;;;24.72;40.80;100122.09;10315545;22;20235;-74
2021/08/04 13:01:20;;;;;;;4.95;3.90;;;;;;;23.55;42.49;100129.69;10306053;28;20192;-73
2021/08/04 13:06:47;;;;;;;5.38;4.53;;;;;;;22.69;44.83;100138.84;10305534;28;20579;-73
2021/08/04 13:11:52;;;;;;;6.05;5.32;;;;;;;20.71;50.17;100154.88;10304909;28;20582;-73
2021/08/04 13:16:56;;;;;;;9.07;4.53;;;;;;;19.87;55.06;100149.13;10304680;28;20291;-73
2021/08/04 13:22:04;;;;;;;5.05;4.47;;;;;;;18.83;57.85;100153.66;10305102;28;20184;-72
2021/08/04 13:27:31;;;;;;;5.57;4.15;;;;;;;17.89;60.61;100156.47;10304580;28;20215;-72
2021/08/04 13:32:34;;;;;;;10.13;5.57;;;;;;;16.40;73.52;100191.28;10305610;28;20176;-73
2021/08/04 13:37:37;;;;;;;12.70;8.10;;;;;;;14.26;88.33;100189.09;10304261;28;20228;-70
2021/08/04 13:42:43;;;;;;;14.50;6.10;;;;;;;13.51;99.05;100187.50;10304912;28;20219;-71
2021/08/04 13:47:47;;;;;;;23.15;7.13;;;;;;;13.40;100.00;100202.88;10304572;28;20219;-71
2021/08/04 13:52:52;;;;;;;16.45;7.57;;;;;;;13.37;100.00;100199.63;10305347;28;20617;-72
2021/08/04 13:57:56;;;;;;;7.85;6.60;;;;;;;13.42;100.00;100206.28;10304753;28;20228;-73
2021/08/04 14:02:59;;;;;;;9.07;7.05;;;;;;;13.88;100.00;100209.09;10305189;28;20200;-72
2021/08/04 14:08:02;;;;;;;8.55;6.85;;;;;;;13.75;100.00;100204.03;10310543;28;20640;-72
2021/08/04 14:13:07;;;;;;;8.02;6.15;;;;;;;13.62;100.00;100206.22;10311328;28;20204;-72
2021/08/04 14:18:10;;;;;;;9.48;5.43;;;;;;;13.72;100.00;100198.94;10310972;28;20239;-72
2021/08/04 14:23:13;;;;;;;7.15;5.57;;;;;;;14.08;100.00;100182.81;10311691;28;20203;-72
2021/08/04 14:28:17;;;;;;;5.38;4.88;;;;;;;14.45;95.55;100192.66;10310210;28;20215;-72
2021/08/04 14:33:20;;;;;;;3.90;3.13;;;;;;;14.34;94.04;100191.88;10310381;28;20200;-72
2021/08/04 14:38:29;;;;;;;0.30;0.30;;;;;;;14.79;94.10;100185.56;10317323;28;20220;-72
2021/08/04 14:43:34;;;;;;;0.68;0.68;;;;;;;15.92;95.32;100188.25;10311058;28;20188;-73
2021/08/04 14:48:37;;;;;;;0.20;0.20;;;;;;;16.56;94.61;100185.88;10309591;28;20303;-72
2021/08/04 14:53:39;;;;;;;1.80;0.70;;;;;;;16.57;93.88;100174.88;10310783;28;20215;-73
2021/08/04 14:58:44;;;;;;;0.60;0.60;;;;;;;16.57;93.02;100164.03;10309212;28;20215;-72
2021/08/04 15:03:47;;;;;;;0.32;0.32;;;;;;;16.68;93.05;100175.56;10309472;28;20199;-72
2021/08/04 15:08:50;;;;;;;0.38;0.38;;;;;;;16.76;92.64;100171.00;10308954;28;20220;-72
2021/08/04 15:13:54;;;;;;;0.57;0.57;;;;;;;16.62;92.82;100163.53;10309392;28;20253;-72
2021/08/04 15:18:59;;;;;;;0.90;0.90;;;;;;;16.77;93.02;100156.41;10308247;28;20212;-73
2021/08/04 15:24:02;;;;;;;0.98;0.93;;;;;;;16.87;92.73;100149.97;10308382;28;20545;-73
2021/08/04 15:29:07;;;;;;;0.28;0.28;;;;;;;16.92;92.74;100148.44;10309552;28;20220;-73
2021/08/04 15:34:09;;;;;;;0.45;0.45;;;;;;;17.00;92.75;100142.13;10308108;28;20741;-73
2021/08/04 15:39:12;;;;;;;0.30;0.30;;;;;;;17.03;92.95;100134.50;10308137;28;20207;-73
2021/08/04 15:44:17;;;;;;;1.17;1.13;;;;;;;17.17;92.88;100132.16;10307729;28;20247;-73
2021/08/04 15:49:19;;;;;;;0.47;0.47;;;;;;;17.47;93.51;100117.78;10307380;28;20224;-73
2021/08/04 15:54:22;;;;;;;0.30;0.30;;;;;;;17.84;93.74;100105.38;10307026;28;20247;-73
2021/08/04 15:59:27;;;;;;;0.15;0.15;;;;;;;18.24;93.69;100103.47;10307270;28;20224;-73
2021/08/04 16:04:29;;;;;;;0.45;0.45;;;;;;;18.46;93.26;100107.19;10306914;28;20689;-73
2021/08/04 16:09:32;;;;;;;0.43;0.40;;;;;;;18.54;92.90;100118.00;10307067;28;20227;-74
2021/08/04 16:14:36;;;;;;;0.50;0.50;;;;;;;19.79;97.36;100111.91;10307053;28;20196;-74
2021/08/04 16:19:41;;;;;;;0.75;0.75;;;;;;;21.81;91.81;100098.66;10306488;28;20212;-73
2021/08/04 16:24:44;;;;;;;0.50;0.50;;;;;;;22.26;88.53;100090.75;10306057;28;20665;-73
2021/08/04 16:29:48;;;;;;;0.93;0.85;;;;;;;21.77;86.21;100094.63;10305537;28;20229;-71
2021/08/04 16:34:51;;;;;;;0.38;0.38;;;;;;;22.21;87.06;100095.19;10305426;28;20234;-71
2021/08/04 16:39:54;;;;;;;0.28;0.28;;;;;;;22.73;84.90;100090.81;10304409;28;20212;-71
2021/08/04 16:44:58;;;;;;;0.40;0.40;;;;;;;22.67;83.68;100089.75;10305030;28;20204;-71
2021/08/04 16:50:03;;;;;;;0.50;0.50;;;;;;;21.73;85.09;100082.41;10305432;28;20263;-72
2021/08/04 16:55:07;;;;;;;0.60;0.60;;;;;;;21.40;84.88;100072.19;10304831;28;20192;-71
2021/08/04 17:00:15;;;;;;;1.58;0.85;;;;;;;22.77;84.44;100062.81;10305487;28;20180;-71
2021/08/04 17:05:18;;;;;;;0.20;0.20;;;;;;;24.40;82.95;100061.75;10304822;28;20180;-72
2021/08/04 17:10:21;;;;;;;0.35;0.35;;;;;;;27.88;82.25;100057.22;10305393;28;20222;-72
2021/08/04 17:15:26;;;;;;;1.33;0.57;;;;;;;30.32;75.33;100051.91;10304986;28;20287;-72
2021/08/04 17:20:29;;;;;;;0.77;0.77;;;;;;;31.14;70.63;100061.66;10305656;28;20661;-72
2021/08/04 17:25:32;;;;;;;0.40;0.40;;;;;;;30.75;68.79;100064.75;10309050;28;20595;-72
2021/08/04 17:30:36;;;;;;;0.77;0.40;;;;;;;26.94;71.33;100058.28;10309136;28;20294;-73
2021/08/04 17:35:39;;;;;;;1.25;0.52;;;;;;;25.79;72.33;100067.72;10304846;28;20278;-72
2021/08/04 17:40:42;;;;;;;0.20;0.20;;;;;;;25.95;70.58;100074.47;10309043;28;20198;-73
2021/08/04 17:45:47;;;;;;;1.65;1.13;;;;;;;22.93;72.00;100077.13;10310742;28;20716;-72
2021/08/04 17:50:50;;;;;;;0.60;0.60;;;;;;;22.83;74.88;100077.53;10310987;28;20270;-72
2021/08/04 17:55:52;;;;;;;0.70;0.70;;;;;;;22.98;78.62;100071.81;10310180;28;20281;-72
2021/08/04 18:00:57;;;;;;;0.30;0.30;;;;;;;23.70;76.28;100077.34;10311751;28;20227;-72
2021/08/04 18:06:01;;;;;;;0.40;0.40;;;;;;;22.39;77.63;100075.44;10310156;28;20291;-72
2021/08/04 18:11:04;;;;;;;1.23;1.13;;;;;;;20.31;79.19;100080.84;10310253;28;20224;-72
2021/08/04 18:16:08;;;;;;;0.25;0.25;;;;;;;18.88;81.47;100080.50;10309703;28;20225;-72
2021/08/04 18:21:11;;;;;;;0.40;0.40;;;;;;;18.26;83.22;100086.94;10310136;28;20192;-72
2021/08/04 18:26:14;;;;;;;0.40;0.40;;;;;;;17.83;83.88;100084.69;10309981;28;20216;-71
2021/08/04 18:31:18;;;;;;;0.65;0.60;;;;;;;17.54;84.63;100090.75;10309896;28;20224;-73
2021/08/04 18:36:23;;;;;;;0.90;0.82;;;;;;;17.29;84.97;100090.03;10309075;28;20232;-71
2021/08/04 18:41:25;;;;;;;1.30;1.20;;;;;;;17.06;85.21;100099.88;10309045;28;20195;-72
2021/08/04 18:46:30;;;;;;;0.50;0.50;;;;;;;16.95;85.85;100101.09;10308851;28;20282;-71
2021/08/04 18:51:33;;;;;;;0.90;0.90;;;;;;;16.79;85.62;100096.56;10307378;28;20312;-73
2021/08/04 18:56:35;;;;;;;0.95;0.95;;;;;;;16.65;85.38;100102.66;10339379;23;20612;-75
2021/08/04 19:01:40;;;;;;;0.65;0.65;;;;;;;16.53;85.65;100113.03;10310752;28;20222;-76
2021/08/04 19:06:43;;;;;;;0.68;0.68;;;;;;;16.45;86.18;100115.72;10309969;28;20216;-75
2021/08/04 19:11:46;;;;;;;1.30;1.08;;;;;;;16.35;85.66;100121.34;10310189;28;20208;-75
2021/08/04 19:16:50;;;;;;;0.38;0.38;;;;;;;16.31;86.30;100122.66;10309612;28;20208;-74
2021/08/04 19:21:53;;;;;;;1.65;1.20;;;;;;;16.24;86.61;100122.47;10309874;28;20192;-75
2021/08/04 19:26:56;;;;;;;0.45;0.45;;;;;;;16.15;86.55;100124.34;10309230;28;20239;-75
2021/08/04 19:32:00;;;;;;;4.57;0.88;;;;;;;16.15;86.57;100115.31;10309243;28;20345;-75
2021/08/04 19:37:03;;;;;;;1.40;0.52;;;;;;;16.12;86.28;100121.09;10308530;28;20212;-74
2021/08/04 19:42:06;;;;;;;0.63;0.63;;;;;;;16.07;86.70;100121.59;10309411;28;20192;-75
2021/08/04 19:47:10;;;;;;;3.42;0.80;;;;;;;16.07;86.65;100127.03;10308616;28;20302;-74
2021/08/04 19:52:13;;;;;;;0.47;0.47;;;;;;;16.04;85.93;100121.91;10309045;28;20219;-74
2021/08/04 19:57:17;;;;;;;0.65;0.65;;;;;;;16.00;85.76;100120.56;10308178;28;20278;-74
2021/08/04 20:02:22;;;;;;;1.33;0.93;;;;;;;16.04;85.60;100123.78;10307525;28;20196;-75
2021/08/04 20:07:25;;;;;;;0.65;0.60;;;;;;;16.09;85.67;100130.41;10308174;28;20200;-74
2021/08/04 20:12:28;;;;;;;0.40;0.40;;;;;;;16.06;85.37;100140.72;10307954;28;20758;-74
2021/08/04 20:17:32;;;;;;;0.57;0.57;;;;;;;16.03;85.22;100141.91;10307650;28;20305;-74
2021/08/04 20:22:35;;;;;;;10.73;9.13;;;;;;;16.03;85.26;100131.06;10307988;28;20600;-74
2021/08/04 20:27:38;;;;;;;12.10;9.50;;;;;;;16.02;85.20;100137.50;10307272;28;20215;-74
2021/08/04 20:32:42;;;;;;;12.20;9.48;;;;;;;15.92;84.97;100134.94;10307367;28;20295;-74
2021/08/04 20:37:45;;;;;;;12.95;10.02;;;;;;;15.85;85.09;100138.47;10307092;28;20216;-75
2021/08/04 20:42:51;;;;;;;11.73;9.63;;;;;;;15.77;84.65;100136.59;10307607;28;20593;-75
2021/08/04 20:47:55;;;;;;;13.63;9.90;;;;;;;15.80;82.83;100130.84;10306821;28;20219;-74
2021/08/04 20:52:59;;;;;;;16.27;9.82;;;;;;;15.85;84.00;100124.91;10307108;28;20250;-74
2021/08/04 20:58:03;;;;;;;10.43;8.68;;;;;;;15.81;84.04;100123.56;10306410;28;20275;-74
2021/08/04 21:03:07;;;;;;;11.82;8.93;;;;;;;15.75;84.20;100124.22;10307801;28;20661;-74
2021/08/04 21:08:10;;;;;;;12.13;9.23;;;;;;;15.69;84.02;100121.16;10306660;28;20231;-74
2021/08/04 21:13:13;;;;;;;14.02;10.25;;;;;;;15.72;83.82;100120.00;10306583;28;20272;-75
2021/08/04 21:18:18;;;;;;;10.68;9.32;;;;;;;15.58;83.03;100126.88;10306491;28;20208;-75
2021/08/04 21:23:21;;;;;;;13.73;9.75;;;;;;;15.44;83.41;100120.22;10306337;28;20188;-75
2021/08/04 21:28:23;;;;;;;15.13;10.25;;;;;;;15.56;83.76;100133.47;10306115;28;20208;-75
2021/08/04 21:33:28;;;;;;;15.65;9.50;;;;;;;15.63;83.69;100121.81;10306153;28;20220;-75
2021/08/04 21:38:31;;;;;;;11.52;9.18;;;;;;;15.13;81.65;100130.66;10306004;28;20224;-75
2021/08/04 21:43:33;;;;;;;13.70;10.68;;;;;;;15.24;83.17;100119.56;10306108;28;20549;-75
2021/08/04 21:48:38;;;;;;;12.68;9.93;;;;;;;15.24;82.94;100127.69;10305633;28;20208;-75
2021/08/04 21:53:40;;;;;;;14.02;10.65;;;;;;;15.10;83.29;100117.47;10305938;28;20216;-75
2021/08/04 21:58:44;;;;;;;13.63;10.63;;;;;;;15.19;83.56;100111.13;10304986;28;20267;-75
2021/08/04 22:03:48;;;;;;;13.48;10.80;;;;;;;15.29;83.40;100119.09;10305394;28;20192;-75
2021/08/04 22:08:51;;;;;;;15.40;12.35;;;;;;;15.43;82.45;100118.50;10304645;28;20637;-75
2021/08/04 22:13:53;;;;;;;16.60;12.52;;;;;;;15.55;82.28;100110.09;10303168;28;20290;-75
2021/08/04 22:18:57;;;;;;;14.48;10.90;;;;;;;15.66;81.72;100115.22;10304022;28;20215;-74
2021/08/04 22:24:00;;;;;;;15.27;10.82;;;;;;;15.46;80.24;100107.34;10303968;28;20207;-74
2021/08/04 22:29:03;;;;;;;16.80;10.63;;;;;;;15.18;81.26;100117.50;10310885;28;20262;-75
2021/08/04 22:34:08;;;;;;;16.10;10.98;;;;;;;15.22;81.96;100118.03;10312321;28;20220;-74
2021/08/04 22:39:10;;;;;;;18.70;11.60;;;;;;;15.30;81.99;100114.53;10311040;28;20216;-74
2021/08/04 22:44:13;;;;;;;13.77;10.95;;;;;;;15.18;81.37;100109.41;10310249;28;20266;-74
2021/08/04 22:49:17;;;;;;;14.43;11.35;;;;;;;15.03;81.89;100102.91;10310703;28;20334;-74
2021/08/04 22:54:20;;;;;;;16.35;11.35;;;;;;;15.06;81.88;100094.47;10310246;28;20621;-74
2021/08/04 22:59:23;;;;;;;14.68;11.20;;;;;;;15.11;82.11;100089.44;10310666;28;20727;-74
2021/08/04 23:04:27;;;;;;;15.93;11.50;;;;;;;15.14;82.02;100083.69;10309685;28;20223;-73
2021/08/04 23:09:30;;;;;;;14.18;11.07;;;;;;;15.14;82.10;100082.81;10309971;28;20216;-74
2021/08/04 23:14:33;;;;;;;13.93;11.15;;;;;;;15.20;82.02;100076.78;10309283;28;20212;-74